Millington Regional Jetport Airport
KNQA : now visible

Airfield :











YOU CAN JOIN US ON...

 
LOGIN :

Register | Disclaimer

   EN    FR    IT 

 









Legend :    VFR   Marginal VFR   IFR   Intensive IFR   Very Intensive IFR
Visi :
Ceiling :
>= 8 km
>= 3000ft
5 to 8 km
1000 to 3000 ft
1500m to 5 km
500 to 1000 ft
800 to 1500m
200 to 500 ft
< 800m
< 200 ft
Symbols :   Thunderstorms  Fog  Heavy snow  Heavy precipitations  Wind > 20 kt






- Airport Elevation : 320 ft


KNQA - Millington Regional Jetport

CURRENT METAR :
  • 231450Z 00000KT 7SM TSRA FEW065 BKN080 BKN090 22/21 A2992 RMK TSB1440

EXPIRED METARs :
  • 231350Z 00000KT 10SM BKN011 23/21 A2992
  • 231255Z AUTO 00000KT 10SM OVC075 22/22 A2992 RMK A01
  • 231215Z AUTO 00000KT 9SM CLR 21/21 A2989 RMK A01
  • 231155Z AUTO 00000KT 5SM BR CLR 20/20 A2989 RMK A01
  • 231135Z AUTO 12004KT 3SM BR CLR 20/19 A2988 RMK A01
  • 231115Z AUTO 00000KT 1/4SM FG VV002 20/19 A2988 RMK A01
  • 231055Z AUTO 00000KT 2 1/2SM BR CLR 19/19 A2989 RMK A01 VIS 3/4V5

TAF N/A
KZME FIR / North America



MET'MAP, your aeronautical weather chart ! - Copyright ORBIFLY December 2007 - Disclaimer

ORBIFLY MET'MAP TEAM :

Programming & Development : Alexandra Zaïnal
Original concept : Baudouin d'Aumeries
Technical & hardware support : Manuel Goepfert
Assistance : Marc-Olivier Méhu




SOURCES & CREDITS :

   NOAA       Earth
Advisory